createdAt,value
2022-09-20T00:01:35.932Z,22.67
2022-09-20T00:04:05.415Z,22.67
2022-09-20T00:06:32.998Z,22.63
2022-09-20T00:09:01.393Z,22.61
2022-09-20T00:11:30.026Z,22.59
2022-09-20T00:13:57.460Z,22.59
2022-09-20T00:16:27.622Z,22.59
2022-09-20T00:18:58.089Z,22.59
2022-09-20T00:21:26.040Z,22.60
2022-09-20T00:23:53.238Z,22.58
2022-09-20T00:26:20.354Z,22.58
2022-09-20T00:28:47.600Z,22.56
2022-09-20T00:31:14.958Z,22.55
2022-09-20T00:34:00.793Z,22.54
2022-09-20T00:36:27.914Z,22.54
2022-09-20T00:38:58.664Z,22.53
2022-09-20T00:41:25.950Z,22.53
2022-09-20T00:43:53.106Z,22.53
2022-09-20T00:46:20.236Z,22.52
2022-09-20T00:48:48.598Z,22.55
2022-09-20T00:51:18.087Z,22.58
2022-09-20T00:53:46.478Z,22.60
2022-09-20T00:56:18.003Z,22.63
2022-09-20T00:58:46.760Z,22.64
2022-09-20T01:01:13.941Z,22.64
2022-09-20T01:03:42.534Z,22.66
2022-09-20T01:06:10.279Z,22.67
2022-09-20T01:08:37.423Z,22.67
2022-09-20T01:11:07.689Z,22.71
2022-09-20T01:13:34.790Z,22.70
2022-09-20T01:16:01.952Z,22.69
2022-09-20T01:18:29.157Z,22.67
2022-09-20T01:20:56.298Z,22.68
2022-09-20T01:23:26.436Z,22.68
2022-09-20T01:26:12.105Z,22.69
2022-09-20T01:28:39.545Z,22.66
2022-09-20T01:31:08.300Z,22.63
2022-09-20T01:33:47.134Z,22.63
2022-09-20T01:36:16.259Z,22.62
2022-09-20T01:38:52.063Z,22.62
2022-09-20T01:41:42.461Z,22.63
2022-09-20T01:44:15.282Z,22.63
2022-09-20T01:46:42.653Z,22.64
2022-09-20T01:49:09.753Z,22.65
2022-09-20T01:51:54.497Z,22.65
2022-09-20T01:54:37.081Z,22.62
2022-09-20T01:57:27.141Z,22.66
2022-09-20T01:59:58.388Z,22.67
2022-09-20T02:02:34.592Z,22.66
2022-09-20T02:05:04.818Z,22.68
2022-09-20T02:07:52.313Z,22.68
2022-09-20T02:10:35.346Z,22.68
2022-09-20T02:13:17.843Z,22.71
2022-09-20T02:16:05.564Z,22.70
2022-09-20T02:18:32.791Z,22.72
2022-09-20T02:21:05.338Z,22.74
2022-09-20T02:23:51.408Z,22.74
2022-09-20T02:26:18.486Z,22.74
2022-09-20T02:28:56.283Z,22.74
2022-09-20T02:31:40.282Z,22.76
2022-09-20T02:34:25.855Z,22.75
2022-09-20T02:36:52.959Z,22.76
2022-09-20T02:39:33.782Z,22.78
2022-09-20T02:42:33.371Z,22.78
2022-09-20T02:45:11.068Z,22.76
2022-09-20T02:47:44.450Z,22.75
2022-09-20T02:50:12.780Z,22.76
2022-09-20T02:52:42.619Z,22.75
2022-09-20T02:55:17.925Z,22.73
2022-09-20T02:58:00.326Z,22.75
2022-09-20T03:00:28.942Z,22.75
2022-09-20T03:03:05.070Z,22.74
2022-09-20T03:05:36.588Z,22.73
2022-09-20T03:08:16.098Z,22.74
2022-09-20T03:10:49.143Z,22.72
2022-09-20T03:13:25.194Z,22.71
2022-09-20T03:16:12.580Z,22.72
2022-09-20T03:19:01.083Z,22.71
2022-09-20T03:21:37.477Z,22.68
2022-09-20T03:24:10.706Z,22.67
2022-09-20T03:26:42.318Z,22.67
2022-09-20T03:29:19.245Z,22.64
2022-09-20T03:31:49.146Z,22.63
2022-09-20T03:34:16.270Z,22.63
2022-09-20T03:37:01.891Z,22.64
2022-09-20T03:39:33.856Z,22.65
2022-09-20T03:42:03.991Z,22.62
2022-09-20T03:44:31.110Z,22.59
2022-09-20T03:47:02.751Z,22.57
2022-09-20T03:49:32.614Z,22.54
2022-09-20T03:52:05.766Z,22.55
2022-09-20T03:54:34.906Z,22.54
2022-09-20T03:57:11.241Z,22.54
2022-09-20T03:59:44.194Z,22.53
2022-09-20T04:02:18.159Z,22.52
2022-09-20T04:04:48.459Z,22.54
2022-09-20T04:07:16.880Z,22.54
2022-09-20T04:09:47.709Z,22.52
2022-09-20T04:12:34.012Z,22.50
2022-09-20T04:15:07.168Z,22.47
2022-09-20T04:17:40.054Z,22.47
2022-09-20T04:20:11.985Z,22.48
2022-09-20T04:22:39.075Z,22.49
2022-09-20T04:25:27.746Z,22.48
2022-09-20T04:28:10.666Z,22.50
2022-09-20T04:30:43.880Z,22.52
2022-09-20T04:33:16.126Z,22.51
2022-09-20T04:36:05.019Z,22.52
2022-09-20T04:38:32.367Z,22.52
2022-09-20T04:41:02.194Z,22.52
2022-09-20T04:43:32.921Z,22.50
2022-09-20T04:46:00.171Z,22.51
2022-09-20T04:48:42.515Z,22.54
2022-09-20T04:51:18.507Z,22.54
2022-09-20T04:53:45.661Z,22.55
2022-09-20T04:56:15.607Z,22.56
2022-09-20T04:59:15.027Z,22.55
2022-09-20T05:02:03.435Z,22.55
2022-09-20T05:04:31.518Z,22.55
2022-09-20T05:07:10.367Z,22.55
2022-09-20T05:09:47.289Z,22.53
2022-09-20T05:12:17.126Z,22.56
2022-09-20T05:14:52.067Z,22.53
2022-09-20T05:17:21.973Z,22.52
2022-09-20T05:20:07.585Z,22.50
2022-09-20T05:23:03.931Z,22.49
2022-09-20T05:25:54.823Z,22.49
2022-09-20T05:28:35.845Z,22.49
2022-09-20T05:31:26.250Z,22.48
2022-09-20T05:33:53.550Z,22.47
2022-09-20T05:36:27.745Z,22.46
2022-09-20T05:39:19.061Z,22.48
2022-09-20T05:41:48.056Z,22.47
2022-09-20T05:44:15.266Z,22.48
2022-09-20T05:47:00.326Z,22.47
2022-09-20T05:49:27.437Z,22.48
2022-09-20T05:52:23.900Z,22.49
2022-09-20T05:55:03.412Z,22.49
2022-09-20T05:57:39.503Z,22.49
2022-09-20T06:00:10.436Z,22.49
2022-09-20T06:02:43.158Z,22.49
2022-09-20T06:05:17.167Z,22.49
2022-09-20T06:07:47.701Z,22.48
2022-09-20T06:10:26.129Z,22.47
2022-09-20T06:12:59.693Z,22.50
2022-09-20T06:15:44.885Z,22.52
2022-09-20T06:18:15.119Z,22.54
2022-09-20T06:20:48.541Z,22.53
2022-09-20T06:23:15.694Z,22.54
2022-09-20T06:25:44.950Z,22.54
2022-09-20T06:28:21.438Z,22.53
2022-09-20T06:30:52.336Z,22.54
2022-09-20T06:33:24.058Z,22.54
2022-09-20T06:36:25.018Z,22.55
2022-09-20T06:39:35.718Z,22.56
2022-09-20T06:42:10.191Z,22.56
2022-09-20T06:44:41.292Z,22.56
2022-09-20T06:47:11.727Z,22.59
2022-09-20T06:49:42.421Z,22.59
2022-09-20T06:52:13.942Z,22.61
2022-09-20T06:54:45.813Z,22.62
2022-09-20T06:57:14.481Z,22.63
2022-09-20T06:59:41.776Z,22.63
2022-09-20T07:02:09.000Z,22.64
2022-09-20T07:04:36.184Z,22.64
2022-09-20T07:07:08.621Z,22.65
2022-09-20T07:09:36.520Z,22.65
2022-09-20T07:12:03.701Z,22.65
2022-09-20T07:14:31.110Z,22.68
2022-09-20T07:16:58.222Z,22.70
2022-09-20T07:19:25.387Z,22.69
2022-09-20T07:21:52.509Z,22.70
2022-09-20T07:24:20.150Z,22.69
2022-09-20T07:26:56.870Z,22.70
2022-09-20T07:29:24.091Z,22.72
2022-09-20T07:31:51.268Z,22.74
2022-09-20T07:34:20.314Z,22.75
2022-09-20T07:36:47.887Z,22.76
2022-09-20T07:39:18.095Z,22.77
2022-09-20T07:41:50.763Z,22.80
2022-09-20T07:44:23.185Z,22.81
2022-09-20T07:46:54.079Z,22.82
2022-09-20T07:49:21.922Z,22.83
2022-09-20T07:51:49.413Z,22.86
2022-09-20T07:54:17.147Z,22.86
2022-09-20T07:56:47.146Z,22.85
2022-09-20T07:59:14.319Z,22.86
2022-09-20T08:01:41.859Z,22.88
2022-09-20T08:04:09.589Z,22.89
2022-09-20T08:06:37.905Z,22.88
2022-09-20T08:09:10.227Z,22.90
2022-09-20T08:11:39.589Z,22.90
2022-09-20T08:14:08.818Z,22.91
2022-09-20T08:16:39.949Z,22.91
2022-09-20T08:19:07.092Z,22.92
2022-09-20T08:21:34.573Z,22.92
2022-09-20T08:24:01.993Z,22.93
2022-09-20T08:26:29.493Z,22.93
2022-09-20T08:28:57.712Z,22.93
2022-09-20T08:31:25.668Z,22.93
2022-09-20T08:33:53.014Z,22.94
2022-09-20T08:36:22.693Z,22.93
2022-09-20T08:41:39.205Z,22.95
2022-09-20T08:44:07.857Z,22.95
2022-09-20T08:46:39.260Z,22.96
2022-09-20T08:49:10.994Z,22.95
2022-09-20T08:51:39.317Z,22.95
2022-09-20T08:54:07.211Z,22.95
2022-09-20T08:56:36.456Z,22.95
2022-09-20T08:59:03.936Z,22.95
2022-09-20T09:01:33.071Z,22.95
2022-09-20T09:04:26.183Z,22.95
2022-09-20T09:06:53.694Z,22.95
2022-09-20T09:09:23.149Z,22.94
2022-09-20T09:11:50.626Z,22.94
2022-09-20T09:14:55.006Z,22.94
2022-09-20T09:17:27.354Z,22.94
2022-09-20T09:19:55.924Z,22.94
2022-09-20T09:22:39.613Z,22.94
2022-09-20T09:25:18.794Z,22.94
2022-09-20T09:28:08.934Z,22.94
2022-09-20T09:30:39.830Z,22.94
2022-09-20T09:33:25.593Z,22.95
2022-09-20T09:35:53.428Z,22.95
2022-09-20T09:38:22.422Z,22.95
2022-09-20T09:40:50.848Z,22.95
2022-09-20T09:43:27.234Z,22.96
2022-09-20T09:45:57.401Z,22.96
2022-09-20T09:48:28.378Z,22.95
2022-09-20T09:51:15.737Z,22.96
2022-09-20T09:53:42.920Z,22.97
2022-09-20T09:56:18.085Z,22.97
2022-09-20T09:59:05.481Z,22.96
2022-09-20T10:01:44.571Z,22.97
2022-09-20T10:04:20.480Z,22.97
2022-09-20T10:06:52.394Z,22.97
2022-09-20T10:09:19.607Z,22.96
2022-09-20T10:12:02.211Z,22.98
2022-09-20T10:14:44.581Z,22.97
2022-09-20T10:17:43.840Z,22.98
2022-09-20T10:20:31.172Z,22.98
2022-09-20T10:26:13.377Z,22.98
2022-09-20T10:28:48.392Z,22.97
2022-09-20T10:31:28.859Z,22.98
2022-09-20T10:33:56.250Z,22.98
2022-09-20T10:36:32.015Z,22.98
2022-09-20T10:39:05.208Z,22.97
2022-09-20T10:41:50.782Z,22.98
2022-09-20T10:44:32.979Z,22.98
2022-09-20T10:47:17.934Z,22.98
2022-09-20T10:49:52.482Z,22.99
2022-09-20T10:52:19.611Z,22.99
2022-09-20T10:55:04.337Z,22.99
2022-09-20T10:57:47.146Z,22.99
2022-09-20T11:00:21.119Z,22.99
2022-09-20T11:03:14.318Z,23.00
2022-09-20T11:05:43.680Z,22.99
2022-09-20T11:08:14.429Z,22.98
2022-09-20T11:10:46.243Z,22.98
2022-09-20T11:13:32.224Z,23.00
2022-09-20T11:16:02.370Z,22.98
2022-09-20T11:18:33.532Z,22.97
2022-09-20T11:21:03.130Z,22.98
2022-09-20T11:23:37.462Z,22.99
2022-09-20T11:26:10.562Z,22.99
2022-09-20T11:28:39.484Z,22.99
2022-09-20T11:31:15.898Z,23.00
2022-09-20T11:33:52.253Z,22.98
2022-09-20T11:36:28.430Z,22.99
2022-09-20T11:39:01.275Z,23.00
2022-09-20T11:41:30.119Z,23.00
2022-09-20T11:44:09.658Z,22.99
2022-09-20T11:46:38.824Z,22.98
2022-09-20T11:49:09.938Z,22.99
2022-09-20T11:51:46.320Z,23.01
2022-09-20T11:54:17.411Z,22.99
2022-09-20T11:56:51.419Z,22.99
2022-09-20T11:59:25.276Z,22.99
2022-09-20T12:01:52.690Z,22.99
2022-09-20T12:04:32.803Z,23.01
2022-09-20T12:07:08.349Z,23.00
2022-09-20T12:09:37.594Z,23.00
2022-09-20T12:12:37.601Z,23.00
2022-09-20T12:15:08.536Z,23.00
2022-09-20T12:17:47.818Z,22.99
2022-09-20T12:20:42.549Z,22.99
2022-09-20T12:23:28.214Z,22.98
2022-09-20T12:26:02.768Z,23.00
2022-09-20T12:28:34.150Z,22.99
2022-09-20T12:31:20.295Z,22.98
2022-09-20T12:34:13.774Z,22.99
2022-09-20T12:36:44.253Z,22.99
2022-09-20T12:39:11.877Z,22.98
2022-09-20T12:41:51.870Z,22.99
2022-09-20T12:44:37.723Z,23.00
2022-09-20T12:47:06.382Z,22.99
2022-09-20T12:50:04.442Z,23.00
2022-09-20T12:52:52.249Z,22.99
2022-09-20T12:55:25.931Z,23.00
2022-09-20T12:57:59.062Z,23.00
2022-09-20T13:00:34.517Z,23.00
2022-09-20T13:03:02.451Z,23.01
2022-09-20T13:05:52.624Z,23.02
2022-09-20T13:08:27.197Z,23.00
2022-09-20T13:11:00.405Z,23.00
2022-09-20T13:13:27.622Z,23.01
2022-09-20T13:15:54.858Z,23.01
2022-09-20T13:18:22.209Z,23.00
2022-09-20T13:20:49.321Z,23.01
2022-09-20T13:23:18.054Z,23.02
2022-09-20T13:25:45.142Z,23.00
2022-09-20T13:28:21.172Z,23.02
2022-09-20T13:30:48.550Z,23.02
2022-09-20T13:33:17.338Z,23.03
2022-09-20T13:35:46.982Z,23.02
2022-09-20T13:38:14.757Z,23.03
2022-09-20T13:40:42.551Z,23.02
2022-09-20T13:43:24.376Z,23.02
2022-09-20T13:45:58.490Z,23.01
2022-09-20T13:48:28.996Z,23.00
2022-09-20T13:50:56.408Z,23.02
2022-09-20T13:53:40.558Z,23.02
2022-09-20T13:56:10.146Z,23.00
2022-09-20T13:58:40.064Z,23.02
2022-09-20T14:01:09.566Z,23.00
2022-09-20T14:03:36.790Z,23.00
2022-09-20T14:06:05.138Z,23.00
2022-09-20T14:08:42.509Z,23.01
2022-09-20T14:11:19.622Z,23.02
2022-09-20T14:13:54.215Z,23.01
2022-09-20T14:16:21.657Z,22.99
2022-09-20T14:18:48.817Z,23.00
2022-09-20T14:21:23.367Z,22.99
2022-09-20T14:23:54.190Z,22.99
2022-09-20T14:26:22.471Z,22.98
2022-09-20T14:28:49.619Z,22.99
2022-09-20T14:31:27.316Z,22.98
2022-09-20T14:33:55.471Z,22.99
2022-09-20T14:36:23.656Z,22.99
2022-09-20T14:38:51.843Z,22.99
2022-09-20T14:41:28.863Z,23.00
2022-09-20T14:43:56.933Z,23.00
2022-09-20T14:46:28.627Z,23.01
2022-09-20T14:48:55.729Z,23.01
2022-09-20T14:51:23.411Z,23.00
2022-09-20T14:54:05.636Z,23.00
2022-09-20T14:56:36.119Z,22.99
2022-09-20T14:59:05.440Z,22.99
2022-09-20T15:01:32.908Z,22.99
2022-09-20T15:04:05.895Z,22.99
2022-09-20T15:06:34.575Z,22.99
2022-09-20T15:09:01.859Z,22.99
2022-09-20T15:11:29.951Z,23.01
2022-09-20T15:13:59.881Z,23.02
2022-09-20T15:16:27.164Z,23.02
2022-09-20T15:18:54.926Z,23.02
2022-09-20T15:21:22.059Z,23.02
2022-09-20T15:23:49.206Z,23.02
2022-09-20T15:26:16.334Z,23.02
2022-09-20T15:28:43.543Z,23.01
2022-09-20T15:31:15.094Z,23.00
2022-09-20T15:33:42.458Z,23.01
2022-09-20T15:36:09.905Z,23.00
2022-09-20T15:38:39.901Z,23.01
2022-09-20T15:41:07.514Z,23.01
2022-09-20T15:43:34.631Z,23.00
2022-09-20T15:46:17.359Z,23.00
2022-09-20T15:48:44.582Z,22.99
2022-09-20T15:51:11.795Z,22.98
2022-09-20T15:53:41.339Z,22.98
2022-09-20T15:56:27.473Z,22.99
2022-09-20T15:58:59.012Z,22.99
2022-09-20T16:01:28.146Z,22.99
2022-09-20T16:03:55.803Z,23.00
2022-09-20T16:06:23.282Z,22.99
2022-09-20T16:08:50.418Z,23.01
2022-09-20T16:11:22.678Z,23.00
2022-09-20T16:13:59.760Z,23.00
2022-09-20T16:16:27.269Z,23.01
2022-09-20T16:19:13.110Z,22.99
2022-09-20T16:21:43.637Z,23.00
2022-09-20T16:24:12.537Z,23.01
2022-09-20T16:26:39.932Z,23.02
2022-09-20T16:29:11.559Z,23.01
2022-09-20T16:31:40.174Z,23.01
2022-09-20T16:34:14.362Z,23.02
2022-09-20T16:36:42.342Z,23.03
2022-09-20T16:39:15.570Z,23.01
2022-09-20T16:41:43.119Z,23.01
2022-09-20T16:44:10.277Z,23.00
2022-09-20T16:46:37.528Z,23.02
2022-09-20T16:49:05.232Z,23.01
2022-09-20T16:51:34.327Z,23.02
2022-09-20T16:54:01.953Z,23.02
2022-09-20T16:56:29.829Z,23.02
2022-09-20T16:58:57.092Z,23.02
2022-09-20T17:01:24.256Z,23.02
2022-09-20T17:03:51.821Z,23.03
2022-09-20T17:06:19.271Z,23.03
2022-09-20T17:08:46.832Z,23.02
2022-09-20T17:11:15.853Z,23.00
2022-09-20T17:13:47.242Z,23.03
2022-09-20T17:16:15.149Z,23.03
2022-09-20T17:18:43.224Z,23.03
2022-09-20T17:21:13.222Z,23.03
2022-09-20T17:23:41.233Z,23.03
2022-09-20T17:26:09.070Z,23.01
2022-09-20T17:28:37.225Z,23.02
2022-09-20T17:31:04.763Z,23.00
2022-09-20T17:33:35.307Z,22.98
2022-09-20T17:36:03.710Z,22.96
2022-09-20T17:38:31.307Z,22.97
2022-09-20T17:41:02.182Z,22.95
2022-09-20T17:43:29.968Z,22.94
2022-09-20T17:46:06.526Z,22.95
2022-09-20T17:48:36.754Z,22.94
2022-09-20T17:51:04.087Z,22.92
2022-09-20T17:53:33.294Z,22.93
2022-09-20T17:56:00.691Z,22.92
2022-09-20T17:58:27.865Z,22.92
2022-09-20T18:01:27.437Z,22.93
2022-09-20T18:03:56.212Z,22.90
2022-09-20T18:06:25.012Z,22.90
2022-09-20T18:08:55.891Z,22.91
2022-09-20T18:11:25.033Z,22.89
2022-09-20T18:13:52.143Z,22.88
2022-09-20T18:16:19.406Z,22.85
2022-09-20T18:18:46.775Z,22.85
2022-09-20T18:21:14.635Z,22.84
2022-09-20T18:23:42.245Z,22.86
2022-09-20T18:26:24.878Z,22.85
2022-09-20T18:28:52.824Z,22.84
2022-09-20T18:31:20.016Z,22.81
2022-09-20T18:33:47.224Z,22.80
2022-09-20T18:36:18.394Z,22.77
2022-09-20T18:38:49.556Z,22.78
2022-09-20T18:41:16.680Z,22.77
2022-09-20T18:43:44.099Z,22.75
2022-09-20T18:46:11.831Z,22.74
2022-09-20T18:48:39.854Z,22.75
2022-09-20T18:51:07.422Z,22.74
2022-09-20T18:53:35.669Z,22.75
2022-09-20T18:56:12.972Z,22.75
2022-09-20T18:58:40.449Z,22.74
2022-09-20T19:01:27.892Z,22.74
2022-09-20T19:03:55.038Z,22.73
2022-09-20T19:06:22.656Z,22.74
2022-09-20T19:08:55.494Z,22.73
2022-09-20T19:11:42.862Z,22.73
2022-09-20T19:14:16.224Z,22.73
2022-09-20T19:16:43.718Z,22.73
2022-09-20T19:19:29.674Z,22.74
2022-09-20T19:22:15.263Z,22.73
2022-09-20T19:24:42.373Z,22.72
2022-09-20T19:27:12.755Z,22.74
2022-09-20T19:29:40.064Z,22.73
2022-09-20T19:32:09.798Z,22.71
2022-09-20T19:34:36.898Z,22.70
2022-09-20T19:37:10.074Z,22.69
2022-09-20T19:39:37.255Z,22.69
2022-09-20T19:42:20.015Z,22.69
2022-09-20T19:44:53.854Z,22.67
2022-09-20T19:47:27.677Z,22.68
2022-09-20T19:50:10.118Z,22.68
2022-09-20T19:52:39.418Z,22.68
2022-09-20T19:55:06.738Z,22.68
2022-09-20T19:57:39.875Z,22.67
2022-09-20T20:00:15.314Z,22.67
2022-09-20T20:02:43.635Z,22.68
2022-09-20T20:05:14.346Z,22.66
2022-09-20T20:07:45.632Z,22.68
2022-09-20T20:10:19.103Z,22.65
2022-09-20T20:12:50.066Z,22.66
2022-09-20T20:15:21.308Z,22.65
2022-09-20T20:18:02.669Z,22.66
2022-09-20T20:20:30.026Z,22.64
2022-09-20T20:23:00.923Z,22.65
2022-09-20T20:25:47.448Z,22.65
2022-09-20T20:28:14.645Z,22.65
2022-09-20T20:30:41.866Z,22.67
2022-09-20T20:33:13.596Z,22.67
2022-09-20T20:35:41.433Z,22.65
2022-09-20T20:38:10.532Z,22.64
2022-09-20T20:40:40.926Z,22.64
2022-09-20T20:43:09.345Z,22.62
2022-09-20T20:45:38.375Z,22.64
2022-09-20T20:48:06.156Z,22.62
2022-09-20T20:50:33.890Z,22.60
2022-09-20T20:53:03.586Z,22.59
2022-09-20T20:55:33.719Z,22.59
2022-09-20T20:58:01.190Z,22.57
2022-09-20T21:00:28.430Z,22.59
2022-09-20T21:02:58.935Z,22.59
2022-09-20T21:05:28.072Z,22.57
2022-09-20T21:07:55.262Z,22.58
2022-09-20T21:10:22.412Z,22.56
2022-09-20T21:12:53.155Z,22.56
2022-09-20T21:15:21.415Z,22.55
2022-09-20T21:17:52.203Z,22.54
2022-09-20T21:20:19.512Z,22.54
2022-09-20T21:22:47.769Z,22.55
2022-09-20T21:25:14.946Z,22.56
2022-09-20T21:27:42.150Z,22.56
2022-09-20T21:30:09.470Z,22.55
2022-09-20T21:32:36.684Z,22.54
2022-09-20T21:35:03.874Z,22.53
2022-09-20T21:37:31.005Z,22.56
2022-09-20T21:40:00.865Z,22.53
2022-09-20T21:42:28.805Z,22.52
2022-09-20T21:44:56.871Z,22.50
2022-09-20T21:47:23.954Z,22.51
2022-09-20T21:49:51.051Z,22.50
2022-09-20T21:52:18.167Z,22.47
2022-09-20T21:54:46.381Z,22.46
2022-09-20T21:57:13.776Z,22.45
2022-09-20T21:59:41.601Z,22.47
2022-09-20T22:02:09.119Z,22.47
2022-09-20T22:04:36.284Z,22.45
2022-09-20T22:07:04.141Z,22.50
2022-09-20T22:09:31.275Z,22.47
2022-09-20T22:11:58.382Z,22.47
2022-09-20T22:14:26.747Z,22.47
2022-09-20T22:16:53.914Z,22.47
2022-09-20T22:19:21.069Z,22.48
2022-09-20T22:21:48.630Z,22.47
2022-09-20T22:24:15.799Z,22.45
2022-09-20T22:26:43.748Z,22.46
2022-09-20T22:29:10.903Z,22.46
2022-09-20T22:31:39.033Z,22.46
2022-09-20T22:34:25.274Z,22.47
2022-09-20T22:36:52.521Z,22.49
2022-09-20T22:39:19.663Z,22.47
2022-09-20T22:41:48.018Z,22.48
2022-09-20T22:44:15.372Z,22.49
2022-09-20T22:46:42.550Z,22.49
2022-09-20T22:49:09.818Z,22.51
2022-09-20T22:51:37.425Z,22.51
2022-09-20T22:54:05.507Z,22.53
2022-09-20T22:56:34.522Z,22.53
2022-09-20T22:59:09.095Z,22.54
2022-09-20T23:01:41.202Z,22.55
2022-09-20T23:04:09.475Z,22.55
2022-09-20T23:06:37.663Z,22.55
2022-09-20T23:09:05.864Z,22.56
2022-09-20T23:11:33.071Z,22.55
2022-09-20T23:14:00.821Z,22.54
2022-09-20T23:16:28.663Z,22.55
2022-09-20T23:18:56.100Z,22.55
2022-09-20T23:21:23.234Z,22.54
2022-09-20T23:23:57.106Z,22.54
2022-09-20T23:26:25.433Z,22.53
2022-09-20T23:28:53.506Z,22.57
2022-09-20T23:31:20.635Z,22.58
2022-09-20T23:33:51.548Z,22.58
2022-09-20T23:36:18.724Z,22.59
2022-09-20T23:38:45.813Z,22.58
2022-09-20T23:41:13.515Z,22.61
2022-09-20T23:43:40.663Z,22.61
2022-09-20T23:46:08.740Z,22.60
2022-09-20T23:48:38.995Z,22.60
2022-09-20T23:51:06.220Z,22.59
2022-09-20T23:53:36.230Z,22.59
2022-09-20T23:56:03.626Z,22.56
2022-09-20T23:58:30.738Z,22.55
